sensor_id;sensor_type;location;lat;lon;timestamp;noise_LAeq;noise_LA_min;noise_LA_max;noise_LA01;noise_LA95
76217;Laerm;65010;50.190;18.930;2023-02-28T00:01:51;36.16;35.02;37.26;;
76217;Laerm;65010;50.190;18.930;2023-02-28T00:04:58;36.83;34.79;41.79;;
76217;Laerm;65010;50.190;18.930;2023-02-28T00:08:06;39.41;37.04;41.99;;
76217;Laerm;65010;50.190;18.930;2023-02-28T00:11:15;38.42;36.69;39.98;;
76217;Laerm;65010;50.190;18.930;2023-02-28T00:14:21;38.50;36.86;41.20;;
76217;Laerm;65010;50.190;18.930;2023-02-28T00:17:30;38.11;35.45;57.25;;
76217;Laerm;65010;50.190;18.930;2023-02-28T00:20:36;39.54;36.85;41.75;;
76217;Laerm;65010;50.190;18.930;2023-02-28T00:23:44;40.09;38.09;42.12;;
76217;Laerm;65010;50.190;18.930;2023-02-28T00:26:50;39.89;38.09;48.62;;
76217;Laerm;65010;50.190;18.930;2023-02-28T00:29:56;40.13;38.17;41.94;;
76217;Laerm;65010;50.190;18.930;2023-02-28T00:33:05;40.14;37.92;42.92;;
76217;Laerm;65010;50.190;18.930;2023-02-28T00:36:12;39.81;38.15;41.59;;
76217;Laerm;65010;50.190;18.930;2023-02-28T00:39:17;39.41;36.74;41.54;;
76217;Laerm;65010;50.190;18.930;2023-02-28T00:42:24;39.33;36.56;41.94;;
76217;Laerm;65010;50.190;18.930;2023-02-28T00:45:30;40.01;38.27;41.91;;
76217;Laerm;65010;50.190;18.930;2023-02-28T00:48:40;39.82;37.78;41.95;;
76217;Laerm;65010;50.190;18.930;2023-02-28T00:51:46;39.88;38.12;44.36;;
76217;Laerm;65010;50.190;18.930;2023-02-28T00:54:52;39.74;37.75;49.29;;
76217;Laerm;65010;50.190;18.930;2023-02-28T00:57:58;39.14;36.74;42.42;;
76217;Laerm;65010;50.190;18.930;2023-02-28T01:01:05;37.29;34.72;41.03;;
76217;Laerm;65010;50.190;18.930;2023-02-28T01:04:16;36.49;34.90;40.05;;
76217;Laerm;65010;50.190;18.930;2023-02-28T01:07:23;39.06;37.16;42.24;;
76217;Laerm;65010;50.190;18.930;2023-02-28T01:10:29;38.80;36.69;46.79;;
76217;Laerm;65010;50.190;18.930;2023-02-28T01:13:37;38.54;36.88;40.03;;
76217;Laerm;65010;50.190;18.930;2023-02-28T01:16:43;38.18;35.81;54.93;;
76217;Laerm;65010;50.190;18.930;2023-02-28T01:19:54;39.28;36.91;41.94;;
76217;Laerm;65010;50.190;18.930;2023-02-28T01:23:00;40.03;38.27;42.02;;
76217;Laerm;65010;50.190;18.930;2023-02-28T01:26:09;40.07;38.00;43.97;;
76217;Laerm;65010;50.190;18.930;2023-02-28T01:29:16;40.06;38.07;44.10;;
76217;Laerm;65010;50.190;18.930;2023-02-28T01:32:23;42.91;38.09;60.11;;
76217;Laerm;65010;50.190;18.930;2023-02-28T01:35:33;39.69;37.69;41.54;;
76217;Laerm;65010;50.190;18.930;2023-02-28T01:38:40;39.47;37.64;41.15;;
76217;Laerm;65010;50.190;18.930;2023-02-28T01:41:46;39.48;37.58;41.37;;
76217;Laerm;65010;50.190;18.930;2023-02-28T01:45:01;39.51;37.53;41.28;;
76217;Laerm;65010;50.190;18.930;2023-02-28T01:48:09;39.49;37.50;41.34;;
76217;Laerm;65010;50.190;18.930;2023-02-28T01:51:24;39.62;37.69;41.85;;
76217;Laerm;65010;50.190;18.930;2023-02-28T01:54:35;40.00;37.99;41.77;;
76217;Laerm;65010;50.190;18.930;2023-02-28T01:57:49;42.40;37.88;55.59;;
76217;Laerm;65010;50.190;18.930;2023-02-28T02:00:56;42.39;38.03;61.73;;
76217;Laerm;65010;50.190;18.930;2023-02-28T02:04:04;41.70;37.94;59.38;;
76217;Laerm;65010;50.190;18.930;2023-02-28T02:07:14;39.74;37.69;41.76;;
76217;Laerm;65010;50.190;18.930;2023-02-28T02:10:29;39.45;37.54;41.70;;
76217;Laerm;65010;50.190;18.930;2023-02-28T02:14:12;39.43;37.63;41.51;;
76217;Laerm;65010;50.190;18.930;2023-02-28T02:17:33;39.25;37.35;41.12;;
76217;Laerm;65010;50.190;18.930;2023-02-28T02:25:08;39.35;37.67;41.34;;
76217;Laerm;65010;50.190;18.930;2023-02-28T02:28:50;39.37;37.68;41.19;;
76217;Laerm;65010;50.190;18.930;2023-02-28T02:32:36;39.71;37.85;42.54;;
76217;Laerm;65010;50.190;18.930;2023-02-28T02:36:03;39.55;37.71;43.23;;
76217;Laerm;65010;50.190;18.930;2023-02-28T02:39:19;40.09;37.85;43.43;;
76217;Laerm;65010;50.190;18.930;2023-02-28T02:42:42;40.19;38.13;45.95;;
76217;Laerm;65010;50.190;18.930;2023-02-28T02:45:57;39.56;37.85;43.52;;
76217;Laerm;65010;50.190;18.930;2023-02-28T02:49:15;39.46;37.36;45.09;;
76217;Laerm;65010;50.190;18.930;2023-02-28T02:52:38;43.89;37.49;64.63;;
76217;Laerm;65010;50.190;18.930;2023-02-28T02:55:52;38.99;35.42;53.24;;
76217;Laerm;65010;50.190;18.930;2023-02-28T02:59:06;44.01;35.56;63.49;;
76217;Laerm;65010;50.190;18.930;2023-02-28T03:02:17;40.16;38.27;57.08;;
76217;Laerm;65010;50.190;18.930;2023-02-28T03:05:30;40.38;38.53;42.72;;
76217;Laerm;65010;50.190;18.930;2023-02-28T03:08:41;39.96;38.13;41.65;;
76217;Laerm;65010;50.190;18.930;2023-02-28T03:11:49;39.75;37.92;41.62;;
76217;Laerm;65010;50.190;18.930;2023-02-28T03:15:15;39.65;37.88;42.90;;
76217;Laerm;65010;50.190;18.930;2023-02-28T03:18:39;39.26;37.51;41.11;;
76217;Laerm;65010;50.190;18.930;2023-02-28T03:22:05;39.38;37.69;41.54;;
76217;Laerm;65010;50.190;18.930;2023-02-28T03:25:31;39.79;37.98;48.63;;
76217;Laerm;65010;50.190;18.930;2023-02-28T03:28:52;41.50;38.22;60.26;;
76217;Laerm;65010;50.190;18.930;2023-02-28T03:32:11;39.87;38.21;42.83;;
76217;Laerm;65010;50.190;18.930;2023-02-28T03:35:31;40.04;38.21;45.42;;
76217;Laerm;65010;50.190;18.930;2023-02-28T03:38:44;39.91;38.22;44.36;;
76217;Laerm;65010;50.190;18.930;2023-02-28T03:42:01;39.66;37.86;47.56;;
76217;Laerm;65010;50.190;18.930;2023-02-28T03:45:16;39.78;38.03;41.57;;
76217;Laerm;65010;50.190;18.930;2023-02-28T03:48:32;39.88;38.01;41.80;;
76217;Laerm;65010;50.190;18.930;2023-02-28T03:51:44;40.04;38.06;54.14;;
76217;Laerm;65010;50.190;18.930;2023-02-28T03:55:00;38.82;35.11;58.26;;
76217;Laerm;65010;50.190;18.930;2023-02-28T03:58:21;39.56;37.45;41.68;;
76217;Laerm;65010;50.190;18.930;2023-02-28T04:01:38;40.46;38.42;42.57;;
76217;Laerm;65010;50.190;18.930;2023-02-28T04:04:46;40.49;38.44;54.01;;
76217;Laerm;65010;50.190;18.930;2023-02-28T04:07:53;48.20;38.11;68.72;;
76217;Laerm;65010;50.190;18.930;2023-02-28T04:11:06;39.80;38.08;42.92;;
76217;Laerm;65010;50.190;18.930;2023-02-28T04:14:22;39.95;38.15;48.80;;
76217;Laerm;65010;50.190;18.930;2023-02-28T04:17:29;42.37;38.10;59.38;;
76217;Laerm;65010;50.190;18.930;2023-02-28T04:20:36;43.86;38.06;67.31;;
76217;Laerm;65010;50.190;18.930;2023-02-28T04:23:42;44.53;38.13;67.76;;
76217;Laerm;65010;50.190;18.930;2023-02-28T04:26:51;39.94;37.98;42.16;;
76217;Laerm;65010;50.190;18.930;2023-02-28T04:30:00;40.03;38.20;48.07;;
76217;Laerm;65010;50.190;18.930;2023-02-28T04:33:07;40.23;37.78;45.28;;
76217;Laerm;65010;50.190;18.930;2023-02-28T04:36:12;42.57;37.88;61.26;;
76217;Laerm;65010;50.190;18.930;2023-02-28T04:39:22;45.19;38.23;64.67;;
76217;Laerm;65010;50.190;18.930;2023-02-28T04:42:28;42.71;38.06;60.58;;
76217;Laerm;65010;50.190;18.930;2023-02-28T04:45:41;45.26;38.51;66.83;;
76217;Laerm;65010;50.190;18.930;2023-02-28T04:48:47;49.44;38.35;70.01;;
76217;Laerm;65010;50.190;18.930;2023-02-28T04:51:54;57.25;38.14;80.41;;
76217;Laerm;65010;50.190;18.930;2023-02-28T04:55:00;42.63;36.07;60.17;;
76217;Laerm;65010;50.190;18.930;2023-02-28T04:58:06;42.75;37.74;60.01;;
76217;Laerm;65010;50.190;18.930;2023-02-28T05:01:25;44.02;38.37;60.94;;
76217;Laerm;65010;50.190;18.930;2023-02-28T05:04:33;42.20;38.55;58.51;;
76217;Laerm;65010;50.190;18.930;2023-02-28T05:07:39;41.20;38.08;53.99;;
76217;Laerm;65010;50.190;18.930;2023-02-28T05:10:46;43.17;38.12;60.68;;
76217;Laerm;65010;50.190;18.930;2023-02-28T05:13:53;40.05;38.15;46.72;;
76217;Laerm;65010;50.190;18.930;2023-02-28T05:17:02;47.32;38.08;63.44;;
76217;Laerm;65010;50.190;18.930;2023-02-28T05:20:11;48.38;38.00;67.31;;
76217;Laerm;65010;50.190;18.930;2023-02-28T05:23:23;43.41;38.06;68.99;;
76217;Laerm;65010;50.190;18.930;2023-02-28T05:26:33;48.13;38.32;65.70;;
76217;Laerm;65010;50.190;18.930;2023-02-28T05:29:40;44.34;38.39;63.76;;
76217;Laerm;65010;50.190;18.930;2023-02-28T05:32:51;45.43;38.02;63.82;;
76217;Laerm;65010;50.190;18.930;2023-02-28T05:35:58;45.52;36.25;63.98;;
76217;Laerm;65010;50.190;18.930;2023-02-28T05:39:05;50.06;38.61;66.92;;
76217;Laerm;65010;50.190;18.930;2023-02-28T05:42:16;47.29;38.42;65.15;;
76217;Laerm;65010;50.190;18.930;2023-02-28T05:45:21;48.14;38.80;68.09;;
76217;Laerm;65010;50.190;18.930;2023-02-28T05:48:31;48.02;38.38;67.94;;
76217;Laerm;65010;50.190;18.930;2023-02-28T05:51:37;47.72;37.74;64.82;;
76217;Laerm;65010;50.190;18.930;2023-02-28T05:54:44;50.60;38.29;65.31;;
76217;Laerm;65010;50.190;18.930;2023-02-28T05:57:51;51.16;38.14;69.60;;
76217;Laerm;65010;50.190;18.930;2023-02-28T06:00:59;51.53;38.54;69.11;;
76217;Laerm;65010;50.190;18.930;2023-02-28T06:04:10;49.66;38.36;65.49;;
76217;Laerm;65010;50.190;18.930;2023-02-28T06:07:33;51.25;38.73;67.45;;
76217;Laerm;65010;50.190;18.930;2023-02-28T06:10:40;51.53;39.01;66.50;;
76217;Laerm;65010;50.190;18.930;2023-02-28T06:13:47;46.26;38.29;64.17;;
76217;Laerm;65010;50.190;18.930;2023-02-28T06:16:52;45.58;38.11;64.02;;
76217;Laerm;65010;50.190;18.930;2023-02-28T06:20:06;40.84;38.18;53.63;;
76217;Laerm;65010;50.190;18.930;2023-02-28T06:23:12;48.55;38.21;66.99;;
76217;Laerm;65010;50.190;18.930;2023-02-28T06:26:19;47.73;38.37;64.15;;
76217;Laerm;65010;50.190;18.930;2023-02-28T06:29:25;47.67;38.50;68.24;;
76217;Laerm;65010;50.190;18.930;2023-02-28T06:32:32;47.50;38.43;66.61;;
76217;Laerm;65010;50.190;18.930;2023-02-28T06:35:44;47.71;38.73;63.77;;
76217;Laerm;65010;50.190;18.930;2023-02-28T06:38:50;50.55;37.63;68.36;;
76217;Laerm;65010;50.190;18.930;2023-02-28T06:41:58;50.01;37.55;69.21;;
76217;Laerm;65010;50.190;18.930;2023-02-28T06:45:06;50.97;39.19;65.63;;
76217;Laerm;65010;50.190;18.930;2023-02-28T06:48:12;52.52;39.09;81.35;;
76217;Laerm;65010;50.190;18.930;2023-02-28T06:51:22;53.65;39.02;68.02;;
76217;Laerm;65010;50.190;18.930;2023-02-28T06:54:27;51.78;39.48;68.24;;
76217;Laerm;65010;50.190;18.930;2023-02-28T06:57:36;50.87;36.01;66.76;;
76217;Laerm;65010;50.190;18.930;2023-02-28T07:00:42;49.57;35.95;65.62;;
76217;Laerm;65010;50.190;18.930;2023-02-28T07:03:48;47.68;35.99;65.46;;
76217;Laerm;65010;50.190;18.930;2023-02-28T07:06:58;47.59;37.60;63.01;;
76217;Laerm;65010;50.190;18.930;2023-02-28T07:10:06;44.76;37.68;60.26;;
76217;Laerm;65010;50.190;18.930;2023-02-28T07:13:11;47.44;36.53;66.73;;
76217;Laerm;65010;50.190;18.930;2023-02-28T07:16:18;51.40;38.03;70.41;;
76217;Laerm;65010;50.190;18.930;2023-02-28T07:19:24;50.88;38.82;68.61;;
76217;Laerm;65010;50.190;18.930;2023-02-28T07:22:34;47.88;38.92;62.88;;
76217;Laerm;65010;50.190;18.930;2023-02-28T07:25:39;46.70;38.69;65.32;;
76217;Laerm;65010;50.190;18.930;2023-02-28T07:28:48;49.30;38.25;65.10;;
76217;Laerm;65010;50.190;18.930;2023-02-28T07:31:55;49.07;38.06;65.59;;
76217;Laerm;65010;50.190;18.930;2023-02-28T07:35:03;48.57;38.49;64.71;;
76217;Laerm;65010;50.190;18.930;2023-02-28T07:38:11;47.92;38.37;63.93;;
76217;Laerm;65010;50.190;18.930;2023-02-28T07:41:22;49.90;38.43;68.39;;
76217;Laerm;65010;50.190;18.930;2023-02-28T07:44:31;49.78;38.73;66.88;;
76217;Laerm;65010;50.190;18.930;2023-02-28T07:47:38;49.05;38.66;66.98;;
76217;Laerm;65010;50.190;18.930;2023-02-28T07:50:43;47.93;38.72;62.84;;
76217;Laerm;65010;50.190;18.930;2023-02-28T07:54:01;49.39;38.67;66.09;;
76217;Laerm;65010;50.190;18.930;2023-02-28T07:57:07;43.29;38.06;59.61;;
76217;Laerm;65010;50.190;18.930;2023-02-28T08:00:15;46.28;38.33;62.30;;
76217;Laerm;65010;50.190;18.930;2023-02-28T08:03:23;44.52;36.11;64.13;;
76217;Laerm;65010;50.190;18.930;2023-02-28T08:06:30;44.09;36.54;62.90;;
76217;Laerm;65010;50.190;18.930;2023-02-28T08:09:39;52.32;38.35;72.38;;
76217;Laerm;65010;50.190;18.930;2023-02-28T08:12:46;47.31;38.67;67.33;;
76217;Laerm;65010;50.190;18.930;2023-02-28T08:15:52;46.21;38.37;64.66;;
76217;Laerm;65010;50.190;18.930;2023-02-28T08:18:58;41.42;38.15;54.24;;
76217;Laerm;65010;50.190;18.930;2023-02-28T08:22:04;46.22;38.45;67.73;;
76217;Laerm;65010;50.190;18.930;2023-02-28T08:25:14;45.40;38.10;60.17;;
76217;Laerm;65010;50.190;18.930;2023-02-28T08:28:20;50.30;38.29;66.99;;
76217;Laerm;65010;50.190;18.930;2023-02-28T08:31:29;53.39;38.27;70.99;;
76217;Laerm;65010;50.190;18.930;2023-02-28T08:34:38;48.34;35.57;65.16;;
76217;Laerm;65010;50.190;18.930;2023-02-28T08:37:44;48.72;35.83;70.31;;
76217;Laerm;65010;50.190;18.930;2023-02-28T08:41:03;46.43;35.79;62.61;;
76217;Laerm;65010;50.190;18.930;2023-02-28T08:44:12;49.83;36.67;65.56;;
76217;Laerm;65010;50.190;18.930;2023-02-28T08:47:18;44.51;37.29;61.94;;
76217;Laerm;65010;50.190;18.930;2023-02-28T08:50:25;50.56;37.09;70.87;;
76217;Laerm;65010;50.190;18.930;2023-02-28T08:53:32;44.39;37.04;62.51;;
76217;Laerm;65010;50.190;18.930;2023-02-28T08:56:41;55.29;38.56;81.27;;
76217;Laerm;65010;50.190;18.930;2023-02-28T08:59:47;46.83;38.29;62.09;;
76217;Laerm;65010;50.190;18.930;2023-02-28T09:02:55;50.27;38.47;67.26;;
76217;Laerm;65010;50.190;18.930;2023-02-28T09:06:01;46.79;38.18;65.77;;
76217;Laerm;65010;50.190;18.930;2023-02-28T09:09:08;45.79;37.93;65.14;;
76217;Laerm;65010;50.190;18.930;2023-02-28T09:12:16;46.21;38.22;62.78;;
76217;Laerm;65010;50.190;18.930;2023-02-28T09:15:23;50.79;38.33;67.98;;
76217;Laerm;65010;50.190;18.930;2023-02-28T09:18:29;50.10;38.12;69.03;;
76217;Laerm;65010;50.190;18.930;2023-02-28T09:21:36;50.83;37.99;66.68;;
76217;Laerm;65010;50.190;18.930;2023-02-28T09:24:43;47.51;35.66;62.67;;
76217;Laerm;65010;50.190;18.930;2023-02-28T09:27:53;46.48;36.05;61.41;;
76217;Laerm;65010;50.190;18.930;2023-02-28T09:31:03;44.74;38.56;71.97;;
76217;Laerm;65010;50.190;18.930;2023-02-28T09:34:10;49.50;38.29;68.28;;
76217;Laerm;65010;50.190;18.930;2023-02-28T09:37:17;45.37;38.20;63.38;;
76217;Laerm;65010;50.190;18.930;2023-02-28T09:40:29;47.16;37.84;68.46;;
76217;Laerm;65010;50.190;18.930;2023-02-28T09:43:46;46.33;37.75;63.94;;
76217;Laerm;65010;50.190;18.930;2023-02-28T09:46:59;45.97;38.32;61.36;;
76217;Laerm;65010;50.190;18.930;2023-02-28T09:50:23;45.26;38.00;68.91;;
76217;Laerm;65010;50.190;18.930;2023-02-28T09:53:38;43.99;35.40;63.88;;
76217;Laerm;65010;50.190;18.930;2023-02-28T09:56:54;48.63;35.55;63.84;;
76217;Laerm;65010;50.190;18.930;2023-02-28T10:00:18;43.55;35.19;70.66;;
76217;Laerm;65010;50.190;18.930;2023-02-28T10:03:36;43.66;35.84;68.23;;
76217;Laerm;65010;50.190;18.930;2023-02-28T10:06:49;47.85;37.02;62.91;;
76217;Laerm;65010;50.190;18.930;2023-02-28T10:10:05;45.59;36.71;62.14;;
76217;Laerm;65010;50.190;18.930;2023-02-28T10:13:25;45.68;36.80;63.06;;
76217;Laerm;65010;50.190;18.930;2023-02-28T10:16:40;45.08;37.88;62.11;;
76217;Laerm;65010;50.190;18.930;2023-02-28T10:20:01;45.42;38.37;63.86;;
76217;Laerm;65010;50.190;18.930;2023-02-28T10:23:20;48.44;36.52;65.86;;
76217;Laerm;65010;50.190;18.930;2023-02-28T10:26:31;46.15;36.49;62.35;;
76217;Laerm;65010;50.190;18.930;2023-02-28T10:29:45;49.39;37.01;64.72;;
76217;Laerm;65010;50.190;18.930;2023-02-28T10:32:58;44.73;36.56;60.05;;
76217;Laerm;65010;50.190;18.930;2023-02-28T10:36:05;49.46;36.77;63.14;;
76217;Laerm;65010;50.190;18.930;2023-02-28T10:39:39;46.21;37.04;63.25;;
76217;Laerm;65010;50.190;18.930;2023-02-28T10:42:56;44.48;36.97;61.49;;
76217;Laerm;65010;50.190;18.930;2023-02-28T10:46:16;44.41;37.38;62.97;;
76217;Laerm;65010;50.190;18.930;2023-02-28T10:49:37;42.75;37.30;58.81;;
76217;Laerm;65010;50.190;18.930;2023-02-28T10:56:30;43.84;36.05;61.59;;
76217;Laerm;65010;50.190;18.930;2023-02-28T10:59:37;44.81;36.10;57.43;;
76217;Laerm;65010;50.190;18.930;2023-02-28T11:02:46;43.80;35.28;60.08;;
76217;Laerm;65010;50.190;18.930;2023-02-28T11:05:55;43.96;35.91;63.72;;
76217;Laerm;65010;50.190;18.930;2023-02-28T11:09:18;45.91;37.40;64.09;;
76217;Laerm;65010;50.190;18.930;2023-02-28T11:12:37;46.92;37.43;64.92;;
76217;Laerm;65010;50.190;18.930;2023-02-28T11:15:59;47.20;38.36;66.82;;
76217;Laerm;65010;50.190;18.930;2023-02-28T11:19:23;57.69;38.60;81.22;;
76217;Laerm;65010;50.190;18.930;2023-02-28T11:22:45;44.87;38.44;70.22;;
76217;Laerm;65010;50.190;18.930;2023-02-28T11:26:00;47.11;37.24;65.61;;
76217;Laerm;65010;50.190;18.930;2023-02-28T11:29:20;44.67;35.81;61.40;;
76217;Laerm;65010;50.190;18.930;2023-02-28T11:32:32;47.44;35.84;66.35;;
76217;Laerm;65010;50.190;18.930;2023-02-28T11:35:40;47.95;35.99;66.92;;
76217;Laerm;65010;50.190;18.930;2023-02-28T11:38:51;45.16;36.84;61.75;;
76217;Laerm;65010;50.190;18.930;2023-02-28T11:42:37;39.18;36.85;50.23;;
76217;Laerm;65010;50.190;18.930;2023-02-28T11:46:14;46.47;36.93;63.51;;
76217;Laerm;65010;50.190;18.930;2023-02-28T11:49:35;54.61;38.54;80.62;;
76217;Laerm;65010;50.190;18.930;2023-02-28T11:52:52;48.48;38.25;63.44;;
76217;Laerm;65010;50.190;18.930;2023-02-28T11:56:10;47.99;36.59;68.66;;
76217;Laerm;65010;50.190;18.930;2023-02-28T11:59:50;47.80;36.41;63.98;;
76217;Laerm;65010;50.190;18.930;2023-02-28T12:03:18;42.85;36.67;58.52;;
76217;Laerm;65010;50.190;18.930;2023-02-28T12:06:43;48.28;36.94;64.34;;
76217;Laerm;65010;50.190;18.930;2023-02-28T12:10:06;45.80;36.97;63.15;;
76217;Laerm;65010;50.190;18.930;2023-02-28T12:13:31;46.78;36.61;62.38;;
76217;Laerm;65010;50.190;18.930;2023-02-28T12:17:00;48.27;37.19;63.92;;
76217;Laerm;65010;50.190;18.930;2023-02-28T12:20:24;42.47;37.35;57.54;;
76217;Laerm;65010;50.190;18.930;2023-02-28T12:24:11;48.64;37.40;69.31;;
76217;Laerm;65010;50.190;18.930;2023-02-28T12:27:33;46.81;36.65;68.44;;
76217;Laerm;65010;50.190;18.930;2023-02-28T12:30:56;45.82;36.56;65.39;;
76217;Laerm;65010;50.190;18.930;2023-02-28T12:34:13;49.60;36.74;63.93;;
76217;Laerm;65010;50.190;18.930;2023-02-28T12:37:27;50.35;37.07;67.44;;
76217;Laerm;65010;50.190;18.930;2023-02-28T12:40:47;45.58;37.02;63.20;;
76217;Laerm;65010;50.190;18.930;2023-02-28T12:44:04;47.18;35.52;65.76;;
76217;Laerm;65010;50.190;18.930;2023-02-28T12:47:18;44.01;35.96;59.31;;
76217;Laerm;65010;50.190;18.930;2023-02-28T12:50:27;47.24;35.62;71.68;;
76217;Laerm;65010;50.190;18.930;2023-02-28T12:53:54;51.18;36.39;72.95;;
76217;Laerm;65010;50.190;18.930;2023-02-28T12:57:13;43.05;36.81;59.86;;
76217;Laerm;65010;50.190;18.930;2023-02-28T13:00:29;49.64;36.85;63.23;;
76217;Laerm;65010;50.190;18.930;2023-02-28T13:11:41;46.91;36.65;66.80;;
76217;Laerm;65010;50.190;18.930;2023-02-28T13:14:49;46.87;36.84;62.79;;
76217;Laerm;65010;50.190;18.930;2023-02-28T13:17:59;41.63;36.40;56.07;;
76217;Laerm;65010;50.190;18.930;2023-02-28T13:21:22;48.37;36.76;65.21;;
76217;Laerm;65010;50.190;18.930;2023-02-28T13:24:48;43.62;36.59;62.16;;
76217;Laerm;65010;50.190;18.930;2023-02-28T13:27:58;45.80;35.40;67.47;;
76217;Laerm;65010;50.190;18.930;2023-02-28T13:31:07;45.85;35.83;64.51;;
76217;Laerm;65010;50.190;18.930;2023-02-28T13:34:16;47.42;35.70;63.95;;
76217;Laerm;65010;50.190;18.930;2023-02-28T13:37:43;50.11;35.87;69.05;;
76217;Laerm;65010;50.190;18.930;2023-02-28T13:40:53;48.62;37.26;65.30;;
76217;Laerm;65010;50.190;18.930;2023-02-28T13:44:03;46.45;37.02;62.50;;
76217;Laerm;65010;50.190;18.930;2023-02-28T13:47:29;50.58;38.33;65.98;;
76217;Laerm;65010;50.190;18.930;2023-02-28T13:50:40;48.04;38.40;63.16;;
76217;Laerm;65010;50.190;18.930;2023-02-28T13:54:18;48.68;37.34;62.74;;
76217;Laerm;65010;50.190;18.930;2023-02-28T13:57:44;49.51;37.09;65.96;;
76217;Laerm;65010;50.190;18.930;2023-02-28T14:01:16;46.13;36.44;64.50;;
76217;Laerm;65010;50.190;18.930;2023-02-28T14:04:49;47.66;36.72;66.13;;
76217;Laerm;65010;50.190;18.930;2023-02-28T14:08:12;46.17;36.88;62.15;;
76217;Laerm;65010;50.190;18.930;2023-02-28T14:11:33;49.86;36.99;65.07;;
76217;Laerm;65010;50.190;18.930;2023-02-28T14:14:57;42.83;37.12;64.59;;
76217;Laerm;65010;50.190;18.930;2023-02-28T14:18:21;47.64;37.17;67.14;;
76217;Laerm;65010;50.190;18.930;2023-02-28T14:21:34;50.38;35.51;69.74;;
76217;Laerm;65010;50.190;18.930;2023-02-28T14:25:09;49.10;35.81;67.36;;
76217;Laerm;65010;50.190;18.930;2023-02-28T14:28:47;47.48;35.87;62.02;;
76217;Laerm;65010;50.190;18.930;2023-02-28T14:32:06;49.65;36.83;62.81;;
76217;Laerm;65010;50.190;18.930;2023-02-28T14:35:48;50.96;36.93;69.63;;
76217;Laerm;65010;50.190;18.930;2023-02-28T14:39:03;47.79;37.07;65.27;;
76217;Laerm;65010;50.190;18.930;2023-02-28T14:42:32;47.94;38.12;63.76;;
76217;Laerm;65010;50.190;18.930;2023-02-28T14:45:40;44.08;38.22;63.17;;
76217;Laerm;65010;50.190;18.930;2023-02-28T14:48:49;47.56;36.61;64.71;;
76217;Laerm;65010;50.190;18.930;2023-02-28T14:52:09;48.08;36.19;63.70;;
76217;Laerm;65010;50.190;18.930;2023-02-28T14:55:26;41.85;36.15;58.17;;
76217;Laerm;65010;50.190;18.930;2023-02-28T14:58:34;47.12;36.73;67.53;;
76217;Laerm;65010;50.190;18.930;2023-02-28T15:01:44;46.70;36.65;64.44;;
76217;Laerm;65010;50.190;18.930;2023-02-28T15:04:58;50.45;36.36;64.46;;
76217;Laerm;65010;50.190;18.930;2023-02-28T15:08:12;45.40;36.40;62.89;;
76217;Laerm;65010;50.190;18.930;2023-02-28T15:11:20;45.52;36.44;63.32;;
76217;Laerm;65010;50.190;18.930;2023-02-28T15:14:30;47.00;36.49;64.23;;
76217;Laerm;65010;50.190;18.930;2023-02-28T15:17:48;49.84;36.94;64.63;;
76217;Laerm;65010;50.190;18.930;2023-02-28T15:21:07;49.93;36.97;66.51;;
76217;Laerm;65010;50.190;18.930;2023-02-28T15:24:30;50.56;37.02;64.64;;
76217;Laerm;65010;50.190;18.930;2023-02-28T15:27:49;48.36;35.41;62.17;;
76217;Laerm;65010;50.190;18.930;2023-02-28T15:31:04;46.62;35.42;64.22;;
76217;Laerm;65010;50.190;18.930;2023-02-28T15:34:37;47.90;35.27;66.42;;
76217;Laerm;65010;50.190;18.930;2023-02-28T15:37:52;50.28;35.58;64.21;;
76217;Laerm;65010;50.190;18.930;2023-02-28T15:41:01;47.47;37.33;71.37;;
76217;Laerm;65010;50.190;18.930;2023-02-28T15:44:17;50.18;37.50;70.72;;
76217;Laerm;65010;50.190;18.930;2023-02-28T15:47:33;49.29;37.72;66.09;;
76217;Laerm;65010;50.190;18.930;2023-02-28T15:50:46;49.97;38.06;64.84;;
76217;Laerm;65010;50.190;18.930;2023-02-28T15:54:02;49.73;38.48;66.36;;
76217;Laerm;65010;50.190;18.930;2023-02-28T15:57:18;53.29;38.32;75.49;;
76217;Laerm;65010;50.190;18.930;2023-02-28T16:00:29;56.54;38.12;78.31;;
76217;Laerm;65010;50.190;18.930;2023-02-28T16:03:46;47.76;36.12;65.90;;
76217;Laerm;65010;50.190;18.930;2023-02-28T16:07:12;50.51;36.41;67.04;;
76217;Laerm;65010;50.190;18.930;2023-02-28T16:10:27;48.04;37.27;61.90;;
76217;Laerm;65010;50.190;18.930;2023-02-28T16:13:38;48.76;37.46;67.36;;
76217;Laerm;65010;50.190;18.930;2023-02-28T16:16:48;47.81;38.37;66.39;;
76217;Laerm;65010;50.190;18.930;2023-02-28T16:19:56;45.96;37.92;65.09;;
76217;Laerm;65010;50.190;18.930;2023-02-28T16:23:06;51.04;37.77;68.69;;
76217;Laerm;65010;50.190;18.930;2023-02-28T16:26:21;49.06;35.92;63.84;;
76217;Laerm;65010;50.190;18.930;2023-02-28T16:29:35;50.35;35.35;66.25;;
76217;Laerm;65010;50.190;18.930;2023-02-28T16:32:43;50.00;35.40;66.02;;
76217;Laerm;65010;50.190;18.930;2023-02-28T16:35:49;45.81;35.54;62.36;;
76217;Laerm;65010;50.190;18.930;2023-02-28T16:38:58;46.56;37.17;61.41;;
76217;Laerm;65010;50.190;18.930;2023-02-28T16:42:05;47.30;37.53;64.79;;
76217;Laerm;65010;50.190;18.930;2023-02-28T16:45:17;49.27;37.53;68.07;;
76217;Laerm;65010;50.190;18.930;2023-02-28T16:48:25;46.52;37.83;64.35;;
76217;Laerm;65010;50.190;18.930;2023-02-28T16:51:33;50.91;37.58;67.34;;
76217;Laerm;65010;50.190;18.930;2023-02-28T16:54:42;49.02;38.13;67.18;;
76217;Laerm;65010;50.190;18.930;2023-02-28T16:57:54;46.97;38.01;65.10;;
76217;Laerm;65010;50.190;18.930;2023-02-28T17:01:04;46.58;37.27;68.17;;
76217;Laerm;65010;50.190;18.930;2023-02-28T17:04:12;46.78;37.77;64.92;;
76217;Laerm;65010;50.190;18.930;2023-02-28T17:07:18;46.73;35.76;61.61;;
76217;Laerm;65010;50.190;18.930;2023-02-28T17:10:29;49.19;37.06;63.98;;
76217;Laerm;65010;50.190;18.930;2023-02-28T17:13:35;45.93;38.25;60.63;;
76217;Laerm;65010;50.190;18.930;2023-02-28T17:16:42;47.57;38.02;66.00;;
76217;Laerm;65010;50.190;18.930;2023-02-28T17:19:50;47.99;37.76;66.53;;
76217;Laerm;65010;50.190;18.930;2023-02-28T17:22:56;40.64;37.36;49.48;;
76217;Laerm;65010;50.190;18.930;2023-02-28T17:26:06;49.20;38.00;71.91;;
76217;Laerm;65010;50.190;18.930;2023-02-28T17:29:19;46.58;38.03;61.81;;
76217;Laerm;65010;50.190;18.930;2023-02-28T17:32:27;45.21;38.09;62.17;;
76217;Laerm;65010;50.190;18.930;2023-02-28T17:35:34;48.63;37.52;63.18;;
76217;Laerm;65010;50.190;18.930;2023-02-28T17:38:40;47.57;34.89;64.54;;
76217;Laerm;65010;50.190;18.930;2023-02-28T17:41:49;47.32;35.12;62.53;;
76217;Laerm;65010;50.190;18.930;2023-02-28T17:44:55;45.31;35.25;62.83;;
76217;Laerm;65010;50.190;18.930;2023-02-28T17:48:03;48.25;37.52;64.67;;
76217;Laerm;65010;50.190;18.930;2023-02-28T17:51:12;47.15;37.02;68.43;;
76217;Laerm;65010;50.190;18.930;2023-02-28T17:54:19;50.01;37.40;64.17;;
76217;Laerm;65010;50.190;18.930;2023-02-28T17:57:28;49.29;38.30;65.42;;
76217;Laerm;65010;50.190;18.930;2023-02-28T18:00:34;42.22;38.03;58.67;;